Home > Products > Valid Products > TAF

000
FTUS43 KBIS 310600 AAA
TAFDIK
TAF AMD
KDIK 310655Z 3107/0106 06009KT P6SM OVC005
     FM311700 07016G24KT 2SM -SN OVC012=



000
FTUS43 KBIS 310500 AAA
TAFBIS
TAF AMD
KBIS 310557Z 3106/0106 01009KT P6SM OVC008
     FM312000 06016G24KT 2SM -SN OVC012=



000
FTUS43 KBIS 310500
TAFISN
TAF
KISN 310520Z 3106/0106 02008KT 6SM BR OVC008
     FM311200 05015KT 2SM -SN OVC012=



000
FTUS43 KBIS 310500
TAFMOT
TAF
KMOT 310520Z 3106/0106 35011KT P6SM OVC006
     FM311300 04013KT 4SM -SN OVC010=



000
FTUS43 KBIS 310500
TAFDIK
TAF
KDIK 310520Z 3106/0106 33009KT P6SM SCT150
     FM310900 07008KT P6SM BKN012
     FM311700 07016G24KT 2SM -SN OVC012=



000
FTUS43 KBIS 310500
TAFJMS
TAF
KJMS 310520Z 3106/0106 36013KT P6SM OVC008
     FM312200 05016G25KT 3SM -SN OVC015=



000
FTUS43 KBIS 310500
TAFBIS
TAF
KBIS 310520Z 3106/0106 01009KT P6SM OVC012
     FM312000 06016G24KT 2SM -SN OVC012=



000
FTUS43 KBIS 310300 AAB
TAFISN
TAF AMD
KISN 310341Z 3104/3124 02008KT P6SM OVC008
     FM311200 05015KT 2SM -SN OVC012=



000
FTUS43 KBIS 310200 AAA
TAFJMS
TAF AMD
KJMS 310208Z 3102/3124 36013KT P6SM OVC009
     FM312200 05016G25KT 3SM -SN OVC015=



000
FTUS43 KBIS 310100 AAA
TAFISN
TAF AMD
KISN 310129Z 3101/3124 34008KT P6SM SCT150
     FM310200 02008KT P6SM OVC015
     FM311200 05015KT 2SM -SN OVC012=



000
FTUS43 KBIS 310100 AAA
TAFMOT
TAF AMD
KMOT 310109Z 3101/3124 32012KT P6SM OVC006
     FM311300 04013KT 4SM -SN OVC010=



000
FTUS43 KBIS 310000 CCA
TAFMOT
TAF COR
KMOT 310021Z 3100/3124 32012KT P6SM OVC009
     FM311300 04013KT 4SM -SN OVC010=



000
FTUS43 KBIS 302300
TAFMOT
TAF
KMOT 302334Z 3100/3124 32012KT P6SM OVC015
     FM311300 04013KT 4SM -SN BR OVC010=



000
FTUS43 KBIS 302300
TAFISN
TAF
KISN 302334Z 3100/3124 34008KT P6SM SCT150
     FM310400 02008KT P6SM OVC025
     FM311200 05015KT 2SM -SN OVC012=



000
FTUS43 KBIS 302300
TAFBIS
TAF
KBIS 302334Z 3100/3124 35009KT P6SM SCT150
     FM310400 01009KT P6SM OVC012
     FM312000 06016G24KT 2SM -SN OVC012=



000
FTUS43 KBIS 302300
TAFDIK
TAF
KDIK 302334Z 3100/3124 33009KT P6SM SCT150
     FM310900 07008KT P6SM BKN012
     FM311700 07016G24KT 2SM -SN OVC012=



000
FTUS43 KBIS 302300
TAFJMS
TAF
KJMS 302334Z 3100/3124 31011KT P6SM SCT100
     FM310800 02013KT P6SM OVC025
     FM312200 05016G25KT 3SM -SN OVC015=



000
FTUS43 KBIS 302100 AAA
TAFMOT
TAF AMD
KMOT 302131Z 3022/3118 29014G22KT 6SM BR OVC010
     FM310300 32012KT P6SM OVC015
     FM311300 03011KT 2SM -SN BR OVC010=



000
FTUS43 KBIS 301700 RRA
TAFMOT
TAF
KMOT 301741Z 3018/3118 26007KT P6SM SCT150
     FM302000 35013KT 3SM BR OVC006
     FM310300 32012KT P6SM OVC015
     FM311300 03011KT 2SM -SN BR OVC010=



000
FTUS43 KBIS 301700 RRA
TAFISN
TAF
KISN 301741Z 3018/3118 34008KT P6SM SCT150
     FM310400 02008KT P6SM OVC025
     FM311200 04014KT P6SM OVC015=



000
FTUS43 KBIS 301700 RRA
TAFBIS
TAF
KBIS 301741Z 3018/3118 29007KT P6SM SCT150
     FM310000 33009KT P6SM SCT150
     FM310400 01009KT P6SM OVC012=



000
FTUS43 KBIS 301700 RRA
TAFDIK
TAF
KDIK 301741Z 3018/3118 25007KT P6SM SCT150
     FM302100 33009KT P6SM SCT150
     FM310900 07008KT P6SM BKN012=



000
FTUS43 KBIS 301700 RRA
TAFJMS
TAF
KJMS 301741Z 3018/3118 18016KT P6SM SCT080
     FM302000 32011KT P6SM SCT100
     FM310800 36013KT P6SM OVC025=



000
FTUS43 KBIS 301500 AAB
TAFJMS
TAF AMD
KJMS 301509Z 3015/3112 18016KT P6SM BKN080
     FM301600 19011KT P6SM SCT150
     FM302000 32011KT P6SM SCT100=



000
FTUS43 KBIS 301300 AAA
TAFJMS
TAF AMD
KJMS 301324Z 3013/3112 18012KT P6SM OVC007
     FM301530 19011KT P6SM SCT150
     FM302000 32011KT P6SM SCT100=



000
FTUS43 KBIS 301100
TAFMOT
TAF
KMOT 301120Z 3012/3112 17007KT P6SM SCT150
     FM301600 29013KT P6SM SCT150
     FM310300 32012KT P6SM OVC030=



000
FTUS43 KBIS 301100
TAFBIS
TAF
KBIS 301120Z 3012/3112 17007KT P6SM SCT150
     FM301900 33009KT P6SM SCT150=



000
FTUS43 KBIS 301100
TAFDIK
TAF
KDIK 301120Z 3012/3112 23007KT P6SM SCT150
     FM301700 33009KT P6SM SCT150=



000
FTUS43 KBIS 301100
TAFISN
TAF
KISN 301120Z 3012/3112 24008KT P6SM SCT150
     FM301300 32008KT P6SM SCT100=



000
FTUS43 KBIS 301100
TAFJMS
TAF
KJMS 301120Z 3012/3112 18011KT P6SM OVC009
     FM301400 19011KT P6SM SCT150
     FM302000 32011KT P6SM SCT100=



000
FTUS43 KBIS 300900 AAB
TAFJMS
TAF AMD
KJMS 300940Z 3010/3106 18011KT P6SM OVC011
     FM301800 32009KT P6SM SCT150=



000
FTUS43 KBIS 300600 AAA
TAFJMS
TAF AMD
KJMS 300603Z 3006/3106 15007KT P6SM OVC012
     FM301000 18011KT P6SM SCT150
     FM302000 32009KT P6SM SCT150=



000
FTUS43 KBIS 300500
TAFISN
TAF
KISN 300520Z 3006/3106 16006KT P6SM SCT150
     FM301200 32008KT P6SM SCT150=



000
FTUS43 KBIS 300500
TAFJMS
TAF
KJMS 300520Z 3006/3106 17007KT P6SM SCT150
     FM302000 32009KT P6SM SCT150=



000
FTUS43 KBIS 300500
TAFMOT
TAF
KMOT 300520Z 3006/3106 17007KT P6SM SCT150
     FM301600 30013KT P6SM SCT150=



000
FTUS43 KBIS 300500
TAFBIS
TAF
KBIS 300520Z 3006/3106 17007KT P6SM SCT150
     FM301900 30009KT P6SM SCT150=



000
FTUS43 KBIS 300500
TAFDIK
TAF
KDIK 300520Z 3006/3106 18007KT P6SM SCT150
     FM301700 33009KT P6SM SCT150=



000
FTUS43 KBIS 300200 AAA
TAFJMS
TAF AMD
KJMS 300218Z 3002/3024 34009KT P6SM OVC015
     FM300600 17007KT P6SM SCT150
     FM302000 32009KT P6SM SCT150=



000
FTUS43 KBIS 292300
TAFBIS
TAF
KBIS 292326Z 3000/3024 VRB05KT P6SM SCT025
     FM300300 17007KT P6SM SCT150
     FM301900 30009KT P6SM SCT150=



000
FTUS43 KBIS 292300
TAFMOT
TAF
KMOT 292326Z 3000/3024 VRB05KT P6SM BKN015
     FM300100 17007KT P6SM SCT150
     FM301600 30013KT P6SM SCT150=



000
FTUS43 KBIS 292300
TAFISN
TAF
KISN 292326Z 3000/3024 16006KT P6SM SCT150
     FM301200 32008KT P6SM SCT150=



000
FTUS43 KBIS 292300
TAFJMS
TAF
KJMS 292326Z 3000/3024 34009KT P6SM OVC018
     FM300300 17007KT P6SM SCT150
     FM302000 32009KT P6SM SCT150=



000
FTUS43 KBIS 292300
TAFDIK
TAF
KDIK 292326Z 3000/3024 18007KT P6SM SCT150
     FM301700 33009KT P6SM SCT150=



000
FTUS43 KBIS 292200 AAA
TAFJMS
TAF AMD
KJMS 292221Z 2922/3018 34009KT P6SM OVC017
     FM300200 12005KT P6SM SCT100=



000
FTUS43 KBIS 292100 AAA
TAFMOT
TAF AMD
KMOT 292115Z 2921/3018 VRB05KT P6SM BKN015
     FM300000 13004KT P6SM SCT015 BKN120=



000
FTUS43 KBIS 291700 RRA
TAFJMS
TAF
KJMS 291741Z 2918/3018 33015G21KT 5SM -SN OVC015
     FM292200 34009KT P6SM OVC025
     FM300100 12005KT P6SM SCT100=



000
FTUS43 KBIS 291700 RRA
TAFDIK
TAF
KDIK 291741Z 2918/3018 30011KT P6SM SCT015
     FM292200 VRB05KT P6SM SCT200=



000
FTUS43 KBIS 291700 RRA
TAFBIS
TAF
KBIS 291741Z 2918/3018 35011KT P6SM OVC025
     FM292200 VRB06KT P6SM SCT030
     FM300300 13005KT P6SM SCT250=



000
FTUS43 KBIS 291700 RRA
TAFISN
TAF
KISN 291741Z 2918/3018 33005KT P6SM OVC012
     FM292000 VRB05KT P6SM SCT030
     FM300200 15006KT P6SM BKN150=



000
FTUS43 KBIS 291700 RRA
TAFMOT
TAF
KMOT 291741Z 2918/3018 32015KT 6SM -SN OVC015
     FM292100 34005KT P6SM OVC020
     FM300000 13004KT P6SM SCT015 BKN120=



000
FTUS43 KBIS 291100
TAFBIS
TAF
KBIS 291128Z 2912/3012 33013G19KT P6SM OVC015
     FM291400 33011KT P6SM OVC015
     FM292200 02005KT P6SM BKN018 OVC022
     FM300300 13005KT P6SM BKN015=



000
FTUS43 KBIS 291100
TAFDIK
TAF
KDIK 291128Z 2912/3012 32011KT P6SM BKN018 OVC022
      TEMPO 2917/2920 SCT025
     FM292000 31006KT P6SM FEW025 SCT220
     FM292200 VRB05KT P6SM SCT200
     FM300100 15006KT P6SM SCT180=



000
FTUS43 KBIS 291100
TAFMOT
TAF
KMOT 291128Z 2912/3012 31012G17KT P6SM BKN018 OVC024
     FM291600 33010KT P6SM SCT015 BKN025
      TEMPO 2922/3002 VRB03KT SCT015 BKN150
     FM300200 13004KT P6SM SCT015 BKN120=



000
FTUS43 KBIS 291100
TAFISN
TAF
KISN 291128Z 2912/3012 31008KT P6SM BKN018
      TEMPO 2913/2917 SCT015 OVC020
     FM291700 35005KT P6SM BKN025
      TEMPO 2918/2922 VRB03KT SCT015
     FM292200 19003KT P6SM SCT018 BKN140
     FM300200 15006KT P6SM FEW020 BKN160=



000
FTUS43 KBIS 291100
TAFJMS
TAF
KJMS 291128Z 2912/3012 33019G27KT P6SM OVC012
     FM291600 33015G21KT P6SM BKN015 OVC025
      TEMPO 2918/2921 SCT018
     FM292100 34009KT P6SM SCT025
     FM300100 VRB04KT P6SM SCT110 BKN140
     FM300400 12003KT P6SM BKN100 OVC140=



000
FTUS43 KBIS 290800 AAB
TAFBIS
TAF AMD
KBIS 290829Z 2908/3006 33013G19KT P6SM OVC015
      TEMPO 2908/2910 5SM -FZDZ BR BKN015 OVC025
     FM291400 33011KT P6SM OVC015
     FM292200 02005KT P6SM BKN018 OVC022
     FM300300 13005KT P6SM BKN015=



000
FTUS43 KBIS 290800 AAA
TAFJMS
TAF AMD
KJMS 290828Z 2908/3006 33019G27KT P6SM OVC015
     FM291600 33015G21KT P6SM BKN015 OVC025
      TEMPO 2918/2921 SCT018
     FM292100 34009KT P6SM SCT025
     FM300100 VRB04KT P6SM SCT110 BKN140
     FM300400 12003KT P6SM BKN100 OVC140=



000
FTUS43 KBIS 290800 AAA
TAFDIK
TAF AMD
KDIK 290824Z 2908/3006 32014G19KT P6SM OVC025
      TEMPO 2908/2912 BKN015
     FM291200 32011KT P6SM SCT018 OVC022
      TEMPO 2917/2920 SCT025
     FM292000 31006KT P6SM FEW025 SCT220
     FM292200 VRB05KT P6SM SCT200
     FM300100 15006KT P6SM SCT180=



000
FTUS43 KBIS 290800 AAA
TAFMOT
TAF AMD
KMOT 290815Z 2908/3006 31015G20KT P6SM SCT015 OVC020
      TEMPO 2908/2912 BKN015
     FM291200 31012G17KT P6SM BKN018 OVC024
     FM291600 33010KT P6SM SCT015 BKN025
      TEMPO 2922/3002 VRB03KT SCT015 BKN150
     FM300200 13004KT P6SM SCT015 BKN120=



000
FTUS43 KBIS 290800 AAA
TAFISN
TAF AMD
KISN 290810Z 2908/3006 33012G17KT P6SM BKN018 OVC025
     FM291200 32008KT P6SM SCT015 OVC020
      TEMPO 2917/2921 VRB03KT SCT015
     FM292100 17003KT P6SM SCT018 BKN140
     FM300200 15006KT P6SM FEW020 BKN160=



000
FTUS43 KBIS 290800 AAA
TAFBIS
TAF AMD
KBIS 290805Z 2908/3006 33013G18KT P6SM OVC015
      TEMPO 2908/2910 5SM -FZDZ BR BKN015 OVC025
     FM291400 33011KT P6SM OVC015
     FM292200 02005KT P6SM BKN018 OVC022
     FM300300 13005KT P6SM BKN015=



000
FTUS43 KBIS 290500
TAFMOT
TAF
KMOT 290533Z 2906/3006 33013KT P6SM OVC015
     FM292300 VRB05KT P6SM SCT015=



000
FTUS43 KBIS 290500
TAFDIK
TAF
KDIK 290533Z 2906/3006 32012KT P6SM BKN025
     FM292300 VRB05KT P6SM SCT025=



000
FTUS43 KBIS 290500
TAFISN
TAF
KISN 290533Z 2906/3006 33009KT P6SM BKN025 OVC035
     FM300200 15006KT P6SM SCT025=



000
FTUS43 KBIS 290500
TAFJMS
TAF
KJMS 290533Z 2906/3006 33019G29KT P6SM OVC015
     FM291500 31009KT P6SM BKN015
     FM300000 VRB05KT P6SM SCT015=



000
FTUS43 KBIS 290500
TAFBIS
TAF
KBIS 290533Z 2906/3006 33015KT P6SM OVC015
     FM291400 34009KT P6SM BKN015
     FM300300 15007KT P6SM SCT015=



000
FTUS43 KBIS 290300 AAA
TAFDIK
TAF AMD
KDIK 290340Z 2904/2924 31018G26KT 6SM BR OVC012
     FM290700 32014KT 6SM BR OVC012
     FM291500 VRB05KT P6SM SCT012=



000
FTUS43 KBIS 290200 AAA
TAFISN
TAF AMD
KISN 290231Z 2903/2924 33009KT P6SM BKN020 OVC030
     FM291400 VRB05KT P6SM SCT025=



000
FTUS43 KBIS 290200 AAA
TAFMOT
TAF AMD
KMOT 290230Z 2903/2924 32017G25KT 6SM BR OVC012
     FM290600 33014KT P6SM OVC012
     FM292000 VRB05KT P6SM SCT012=



000
FTUS43 KBIS 290200 AAA
TAFBIS
TAF AMD
KBIS 290229Z 2902/2924 32019G25KT 6SM BR OVC012
     FM290600 33014KT P6SM OVC012
     FM291400 34008KT P6SM BKN015
     FM292000 VRB05KT P6SM SCT015=



000
FTUS43 KBIS 282300
TAFISN
TAF
KISN 282331Z 2900/2924 32015KT 6SM BR OVC009
     FM290600 32009KT 6SM BR OVC009
     FM291500 VRB05KT P6SM SCT009=



000
FTUS43 KBIS 282300
TAFJMS
TAF
KJMS 282331Z 2900/2924 33020G29KT 6SM BR OVC006
     FM290800 31014KT P6SM OVC008
     FM292100 VRB05KT P6SM SCT008=



000
FTUS43 KBIS 282300
TAFMOT
TAF
KMOT 282331Z 2900/2924 32017G25KT 6SM BR OVC008
     FM290600 33014KT P6SM OVC009
     FM292000 VRB05KT P6SM SCT009=



000
FTUS43 KBIS 282300
TAFDIK
TAF
KDIK 282331Z 2900/2924 31018G26KT 6SM BR OVC008
     FM290700 32014KT 6SM BR OVC009
     FM291500 VRB05KT P6SM SCT009=



000
FTUS43 KBIS 282300
TAFBIS
TAF
KBIS 282331Z 2900/2924 32019G25KT 6SM BR OVC008
     FM290600 33014KT P6SM OVC008
     FM291400 34008KT P6SM BKN008
     FM292000 VRB05KT P6SM SCT008=



000
FTUS43 KBIS 282100 AAB
TAFJMS
TAF AMD
KJMS 282148Z 2822/2918 33017G25KT 6SM BR OVC005
     FM290100 33022G33KT 6SM BR OVC008
     FM290800 31014G19KT P6SM OVC010=



000
FTUS43 KBIS 281900 AAA
TAFDIK
TAF AMD
KDIK 281939Z 2820/2918 32027G36KT 6SM BR OVC008
     FM290100 31018G26KT 6SM BR OVC006
     FM290600 32013G18KT 6SM BR OVC010=



000
FTUS43 KBIS 281800 AAA
TAFJMS
TAF AMD
KJMS 281824Z 2818/2918 30006KT 1SM BR OVC002
     FM282000 33019G27KT 6SM BR SCT004 OVC007
     FM290100 33022G33KT 6SM BR OVC008
     FM290800 31014G19KT P6SM OVC010=



000
FTUS43 KBIS 281800 AAA
TAFISN
TAF AMD
KISN 281822Z 2818/2918 33014G19KT 4SM BR OVC005
     FM282000 32017G26KT 6SM BR OVC006
     FM290600 32011KT 5SM BR OVC010=



000
FTUS43 KBIS 281700
TAFBIS
TAF
KBIS 281725Z 2818/2918 30010KT P6SM OVC120
     FM281900 32020G28KT 6SM BR OVC007
     FM290100 32019G25KT 6SM BR SCT001 OVC006
     FM290600 33014KT P6SM OVC010=



000
FTUS43 KBIS 281700
TAFMOT
TAF
KMOT 281725Z 2818/2918 32007KT 1/2SM FZFG VV002
     FM282100 31020G28KT 6SM BR OVC005
     FM290100 32019G25KT 6SM BR SCT001 OVC008
     FM290600 33014KT P6SM OVC010=



000
FTUS43 KBIS 281700
TAFDIK
TAF
KDIK 281725Z 2818/2918 30019G27KT P6SM OVC120
     FM282000 32023G30KT 6SM BR OVC008
     FM290100 31018G26KT 6SM BR OVC006
     FM290600 32013G18KT 6SM BR OVC010=



000
FTUS43 KBIS 281700
TAFISN
TAF
KISN 281725Z 2818/2918 33015G23KT 2SM BR OVC004
      TEMPO 2818/2822 1/4SM FG VV001
     FM290300 31014G19KT 6SM BR OVC006
     FM290600 32011KT 5SM BR OVC010=



000
FTUS43 KBIS 281700
TAFJMS
TAF
KJMS 281725Z 2818/2918 28003KT 1/4SM FZFG VV002
     FM282100 33019G27KT 6SM BR SCT004 OVC007
     FM290100 33022G33KT 6SM BR OVC008
     FM290800 31014G19KT P6SM OVC010=



000
FTUS43 KBIS 281100
TAFISN
TAF
KISN 281129Z 2812/2912 VRB03KT P6SM SCT150 BKN200
      TEMPO 2814/2816 34008KT 1/2SM FG BKN004 OVC006
     FM281600 33015KT 3/4SM BR VCSH OVC004
     FM281900 32018G25KT P6SM -SHSN BKN005 OVC008
     FM290100 31014G19KT P6SM -SHSN OVC006
     FM290600 32011KT 5SM -SHSN BR OVC008=



000
FTUS43 KBIS 281100
TAFJMS
TAF
KJMS 281129Z 2812/2912 18007KT 1/4SM FG OVC002
      TEMPO 2817/2820 32011KT 2SM BR OVC004
     FM282000 33020G27KT P6SM VCSH BKN004 OVC007
     FM290000 33022G33KT P6SM -SHSN BKN006 OVC011=



000
FTUS43 KBIS 281100
TAFDIK
TAF
KDIK 281129Z 2812/2912 27011KT P6SM SCT110 BKN150
      TEMPO 2817/2819 SCT004 BKN011
     FM281900 32021G30KT P6SM VCSH OVC005
     FM290000 31018G26KT P6SM -SHSN OVC006
     FM290600 32013G18KT P6SM -SHSN OVC008=



000
FTUS43 KBIS 281100
TAFMOT
TAF
KMOT 281129Z 2812/2912 32003KT 1/4SM FG OVC001
      TEMPO 2812/2816 1/2SM FG VV002
     FM281600 33011KT 1/2SM FG VCSH BKN002 OVC005
     FM281800 32016G22KT 4SM -SHSN BR OVC006
     FM282000 31021G29KT P6SM -SHSN OVC008=



000
FTUS43 KBIS 281100
TAFBIS
TAF
KBIS 281129Z 2812/2912 VRB03KT P6SM SCT150 SCT220
     FM281600 32009KT P6SM VCFG FEW002 SCT110 BKN150
      TEMPO 2816/2818 33017G24KT 1SM BR BKN003
     FM281800 32020G28KT P6SM VCSH SCT001 OVC004
     FM290100 32019G25KT P6SM -SHSN SCT001 OVC006=



    US Dept of Commerce
    National Oceanic and Atmospheric Administration
    National Weather Service
    1325 East West Highway
    Silver Spring, MD 20910
    Page Author: NWS Internet Services Team
Disclaimer
Information Quality
Credits
Glossary
Privacy Policy
Freedom of Information Act (FOIA)
About Us
Career Opportunities